createdAt,value
2019-01-12T00:00:23.061Z,79.60
2019-01-12T00:05:25.529Z,79.75
2019-01-12T00:10:27.992Z,79.89
2019-01-12T00:15:30.453Z,79.96
2019-01-12T00:20:32.926Z,79.82
2019-01-12T00:25:35.400Z,79.67
2019-01-12T00:30:37.853Z,79.82
2019-01-12T00:35:40.303Z,80.00
2019-01-12T00:40:42.772Z,79.94
2019-01-12T00:45:45.235Z,80.18
2019-01-12T00:50:47.711Z,80.29
2019-01-12T00:55:50.172Z,80.14
2019-01-12T01:00:52.631Z,80.38
2019-01-12T01:05:55.094Z,80.38
2019-01-12T01:10:57.561Z,80.62
2019-01-12T01:16:00.016Z,80.54
2019-01-12T01:21:02.499Z,80.59
2019-01-12T01:26:04.971Z,80.57
2019-01-12T01:31:07.415Z,80.66
2019-01-12T01:36:09.870Z,80.46
2019-01-12T01:41:12.333Z,80.51
2019-01-12T01:46:14.803Z,80.59
2019-01-12T01:51:17.281Z,80.45
2019-01-12T01:56:19.736Z,80.73
2019-01-12T02:01:22.194Z,80.70
2019-01-12T02:06:24.715Z,80.59
2019-01-12T02:11:27.135Z,80.58
2019-01-12T02:16:29.594Z,80.54
2019-01-12T02:21:32.072Z,80.52
2019-01-12T02:26:34.557Z,80.85
2019-01-12T02:31:37.042Z,80.58
2019-01-12T02:36:39.552Z,80.44
2019-01-12T02:41:41.949Z,80.70
2019-01-12T02:46:44.407Z,80.68
2019-01-12T02:51:46.873Z,80.79
2019-01-12T02:56:49.344Z,80.57
2019-01-12T03:01:51.809Z,80.62
2019-01-12T03:06:54.277Z,80.72
2019-01-12T03:11:56.742Z,80.70
2019-01-12T03:16:59.279Z,80.85
2019-01-12T03:22:01.685Z,80.76
2019-01-12T03:27:04.147Z,80.81
2019-01-12T03:32:06.615Z,80.96
2019-01-12T03:37:09.059Z,80.75
2019-01-12T03:42:11.518Z,80.83
2019-01-12T03:47:13.995Z,80.78
2019-01-12T03:52:16.471Z,80.65
2019-01-12T03:57:18.935Z,80.67
2019-01-12T04:02:21.392Z,80.84
2019-01-12T04:07:23.854Z,80.88
2019-01-12T04:12:26.334Z,80.81
2019-01-12T04:17:28.835Z,80.93
2019-01-12T04:22:31.295Z,80.81
2019-01-12T04:27:33.735Z,80.88
2019-01-12T04:32:36.186Z,80.72
2019-01-12T04:37:38.650Z,80.75
2019-01-12T04:42:41.120Z,80.74
2019-01-12T04:47:43.586Z,80.83
2019-01-12T04:52:46.045Z,80.74
2019-01-12T04:57:48.506Z,80.77
2019-01-12T05:02:50.964Z,80.76
2019-01-12T05:07:53.422Z,80.77
2019-01-12T05:12:55.885Z,80.71
2019-01-12T05:17:58.338Z,80.76
2019-01-12T05:23:00.812Z,80.99
2019-01-12T05:28:03.266Z,80.82
2019-01-12T05:33:05.720Z,81.07
2019-01-12T05:38:08.191Z,80.99
2019-01-12T05:43:10.645Z,80.81
2019-01-12T05:48:13.118Z,80.86
2019-01-12T05:53:15.573Z,80.89
2019-01-12T05:58:18.051Z,81.06
2019-01-12T06:03:20.510Z,81.00
2019-01-12T06:08:22.974Z,80.93
2019-01-12T06:13:25.433Z,80.93
2019-01-12T06:18:27.912Z,80.85
2019-01-12T06:23:30.363Z,80.92
2019-01-12T06:28:32.895Z,80.77
2019-01-12T06:33:35.399Z,80.92
2019-01-12T06:38:37.897Z,80.82
2019-01-12T06:43:40.352Z,80.98
2019-01-12T06:48:42.852Z,80.98
2019-01-12T06:53:45.313Z,80.93
2019-01-12T06:58:47.764Z,81.03
2019-01-12T07:03:50.231Z,81.09
2019-01-12T07:08:52.709Z,81.08
2019-01-12T07:13:58.017Z,81.13
2019-01-12T07:19:00.415Z,81.09
2019-01-12T07:24:03.453Z,81.18
2019-01-12T07:29:05.939Z,80.97
2019-01-12T07:34:08.385Z,80.98
2019-01-12T07:39:10.866Z,80.75
2019-01-12T07:44:13.315Z,80.73
2019-01-12T07:49:15.784Z,80.64
2019-01-12T07:54:18.251Z,80.68
2019-01-12T07:59:20.708Z,80.50
2019-01-12T08:04:23.176Z,80.34
2019-01-12T08:09:25.639Z,80.39
2019-01-12T08:14:28.098Z,80.36
2019-01-12T08:19:30.563Z,80.20
2019-01-12T08:24:33.008Z,79.64
2019-01-12T08:29:35.454Z,79.47
2019-01-12T08:34:37.939Z,79.60
2019-01-12T08:39:40.397Z,79.62
2019-01-12T08:44:42.852Z,79.34
2019-01-12T08:49:45.314Z,79.22
2019-01-12T08:54:47.791Z,79.17
2019-01-12T08:59:50.246Z,79.07
2019-01-12T09:04:52.705Z,78.85
2019-01-12T09:09:55.174Z,78.91
2019-01-12T09:14:57.647Z,78.57
2019-01-12T09:20:00.155Z,78.45
2019-01-12T09:25:02.610Z,78.23
2019-01-12T09:30:13.858Z,78.06
2019-01-12T09:35:16.332Z,78.00
2019-01-12T09:40:18.942Z,77.69
2019-01-12T09:45:21.406Z,77.39
2019-01-12T09:50:23.863Z,76.94
2019-01-12T09:55:26.333Z,76.41
2019-01-12T10:00:28.799Z,76.34
2019-01-12T10:05:31.262Z,76.22
2019-01-12T10:10:33.723Z,76.42
2019-01-12T10:15:36.261Z,76.52
2019-01-12T10:20:38.757Z,76.53
2019-01-12T10:25:41.232Z,77.11
2019-01-12T10:30:43.698Z,77.17
2019-01-12T10:35:46.224Z,77.58
2019-01-12T10:40:48.686Z,77.74
2019-01-12T10:45:51.179Z,77.94
2019-01-12T10:50:53.608Z,78.19
2019-01-12T10:55:56.071Z,78.24
2019-01-12T11:00:58.550Z,78.40
2019-01-12T11:06:01.037Z,78.30
2019-01-12T11:11:03.513Z,77.69
2019-01-12T11:16:06.014Z,77.25
2019-01-12T11:21:08.476Z,76.65
2019-01-12T11:26:10.958Z,76.92
2019-01-12T11:31:19.624Z,77.36
2019-01-12T11:36:15.898Z,77.21
2019-01-12T11:41:18.357Z,77.97
2019-01-12T11:46:20.819Z,78.45
2019-01-12T11:51:23.284Z,78.34
2019-01-12T11:56:25.755Z,78.55
2019-01-12T12:01:28.262Z,78.63
2019-01-12T12:06:30.794Z,78.16
2019-01-12T12:11:33.258Z,77.86
2019-01-12T12:16:35.725Z,77.79
2019-01-12T12:21:38.185Z,77.78
2019-01-12T12:26:40.665Z,77.67
2019-01-12T12:31:43.143Z,77.68
2019-01-12T12:36:45.607Z,78.33
2019-01-12T12:41:48.095Z,78.59
2019-01-12T12:46:50.570Z,78.61
2019-01-12T12:51:53.028Z,78.75
2019-01-12T12:56:55.504Z,78.64
2019-01-12T13:01:57.959Z,78.74
2019-01-12T13:07:00.439Z,78.42
2019-01-12T13:12:02.918Z,77.72
2019-01-12T13:17:05.374Z,77.77
2019-01-12T13:22:07.879Z,77.65
2019-01-12T13:27:10.331Z,77.77
2019-01-12T13:32:12.793Z,78.14
2019-01-12T13:37:15.301Z,78.28
2019-01-12T13:42:17.777Z,78.67
2019-01-12T13:47:21.010Z,78.84
2019-01-12T13:52:22.760Z,78.99
2019-01-12T13:57:25.213Z,78.87
2019-01-12T14:02:27.676Z,78.50
2019-01-12T14:07:30.130Z,78.31
2019-01-12T14:12:32.604Z,78.33
2019-01-12T14:17:35.056Z,79.06
2019-01-12T14:22:37.540Z,79.56
2019-01-12T14:27:40.037Z,79.68
2019-01-12T14:32:42.502Z,79.59
2019-01-12T14:37:45.463Z,79.64
2019-01-12T14:42:49.759Z,79.90
2019-01-12T14:47:50.392Z,80.07
2019-01-12T14:52:52.890Z,80.22
2019-01-12T14:58:02.046Z,80.31
2019-01-12T15:02:57.909Z,80.32
2019-01-12T15:08:00.376Z,80.66
2019-01-12T15:13:02.868Z,80.75
2019-01-12T15:18:05.344Z,80.73
2019-01-12T15:23:07.835Z,80.83
2019-01-12T15:28:10.305Z,80.95
2019-01-12T15:33:14.242Z,80.95
2019-01-12T15:38:15.233Z,80.99
2019-01-12T15:43:17.697Z,81.09
2019-01-12T15:48:20.168Z,81.19
2019-01-12T15:53:22.638Z,81.36
2019-01-12T15:58:25.135Z,81.44
2019-01-12T16:03:27.606Z,81.33
2019-01-12T16:08:30.078Z,81.66
2019-01-12T16:13:32.542Z,81.68
2019-01-12T16:18:35.015Z,81.92
2019-01-12T16:23:37.478Z,81.89
2019-01-12T16:28:39.945Z,82.00
2019-01-12T16:33:42.655Z,82.26
2019-01-12T16:38:44.864Z,82.42
2019-01-12T16:43:47.332Z,82.46
2019-01-12T16:48:49.794Z,82.48
2019-01-12T16:53:52.275Z,82.58
2019-01-12T16:58:54.764Z,82.53
2019-01-12T17:03:57.228Z,82.58
2019-01-12T17:08:59.749Z,82.49
2019-01-12T17:14:02.212Z,82.52
2019-01-12T17:19:04.697Z,82.49
2019-01-12T17:24:07.155Z,82.54
2019-01-12T17:29:09.606Z,82.65
2019-01-12T17:34:12.068Z,82.71
2019-01-12T17:39:14.564Z,82.63
2019-01-12T17:44:17.051Z,82.58
2019-01-12T17:49:19.535Z,82.59
2019-01-12T17:54:21.998Z,82.55
2019-01-12T17:59:24.480Z,82.63
2019-01-12T18:04:26.970Z,82.69
2019-01-12T18:09:29.430Z,82.73
2019-01-12T18:14:31.900Z,82.73
2019-01-12T18:19:34.436Z,82.81
2019-01-12T18:24:36.877Z,82.91
2019-01-12T18:29:39.364Z,82.93
2019-01-12T18:34:41.840Z,83.04
2019-01-12T18:39:44.336Z,83.13
2019-01-12T18:44:46.751Z,83.14
2019-01-12T18:49:49.216Z,83.10
2019-01-12T18:54:51.683Z,83.10
2019-01-12T18:59:54.130Z,83.17
2019-01-12T19:04:56.628Z,83.24
2019-01-12T19:09:59.102Z,83.27
2019-01-12T19:15:01.575Z,83.17
2019-01-12T19:20:04.015Z,83.19
2019-01-12T19:25:06.477Z,83.26
2019-01-12T19:30:08.949Z,83.26
2019-01-12T19:35:11.402Z,83.30
2019-01-12T19:40:13.856Z,83.28
2019-01-12T19:45:16.330Z,83.42
2019-01-12T19:50:18.815Z,83.42
2019-01-12T19:55:21.298Z,83.47
2019-01-12T20:00:23.773Z,83.49
2019-01-12T20:05:26.222Z,83.48
2019-01-12T20:10:28.688Z,83.56
2019-01-12T20:15:31.162Z,83.59
2019-01-12T20:20:33.662Z,83.57
2019-01-12T20:25:36.129Z,83.61
2019-01-12T20:30:41.293Z,83.60
2019-01-12T20:36:02.056Z,83.60
2019-01-12T20:41:10.140Z,83.63
2019-01-12T20:46:18.774Z,83.56
2019-01-12T20:51:43.026Z,83.44
2019-01-12T20:56:54.306Z,83.53
2019-01-12T21:02:05.563Z,83.45
2019-01-12T21:07:35.711Z,83.52
2019-01-12T21:12:58.968Z,83.44
2019-01-12T21:18:01.443Z,83.36
2019-01-12T21:23:03.949Z,83.35
2019-01-12T21:28:06.486Z,83.50
2019-01-12T21:33:08.943Z,83.62
2019-01-12T21:38:11.422Z,83.57
2019-01-12T21:43:13.881Z,83.62
2019-01-12T21:48:16.358Z,83.57
2019-01-12T21:53:18.820Z,83.66
2019-01-12T21:58:21.301Z,83.45
2019-01-12T22:03:23.788Z,83.48
2019-01-12T22:08:26.248Z,83.63
2019-01-12T22:13:28.715Z,83.50
2019-01-12T22:18:31.209Z,83.50
2019-01-12T22:23:33.684Z,83.49
2019-01-12T22:28:36.162Z,83.64
2019-01-12T22:33:38.656Z,83.66
2019-01-12T22:38:41.140Z,83.67
2019-01-12T22:43:43.646Z,83.67
2019-01-12T22:48:46.126Z,83.71
2019-01-12T22:53:48.589Z,83.79
2019-01-12T22:58:51.055Z,83.75
2019-01-12T23:03:53.613Z,83.76
2019-01-12T23:08:56.079Z,83.72
2019-01-12T23:13:58.551Z,83.90
2019-01-12T23:19:01.029Z,84.01
2019-01-12T23:24:03.513Z,84.06
2019-01-12T23:29:05.977Z,84.04
2019-01-12T23:34:08.561Z,84.11
2019-01-12T23:39:11.027Z,84.05
2019-01-12T23:44:15.061Z,84.01
2019-01-12T23:49:15.974Z,84.18
2019-01-12T23:54:18.428Z,84.15
2019-01-12T23:59:20.900Z,84.21
